Ana Sayfa
METAR-TAF:

METAR-TAF

Havaalanları :

Nouakchott, Moritanya

Enlem: 18-18-36N, Boylam: 015-58-11W, yükseklik: 3 m

Güncel hava durumu gözlemi

Rapor saat 13:00 UTC de 1 saat ve 28 dakika önce yapıldı.
Rüzgar batıdan 15 kt
Sıcaklık 30°C
Nem 66%
Basınç 1012 hPa
Görüş mesafesi: 8000 m

METAR: GQNO 261300Z 26015KT 8000 NSC 30/23 Q1012 NOSIG

Saat: 14:28 (14:28 UTC)

Tahmin

Rapor saat 11:00 UTC de 3 saat ve 28 dakika önce yapıldı.
Ayın 26'si saat 12 UTC'den ayın 27'si saat 18 UTC'ye kadar geçerli Tahmin
Rüzgar kuzey/kuzeybatıdan 8 kt
Görüş mesafesi: 8000 m
Olasılık 30% :
Geçici
ayın 26'si saat 16 UTC'den ayın 26'si saat 20 UTC'ye kadar
Görüş mesafesi: 4000 m
Savrulan kum
Olasılık 40% :
Geçici
ayın 27'si saat 09 UTC'den ayın 27'si saat 15 UTC'ye kadar
Rüzgar kuzeydoğudan 12 kt
Görüş mesafesi: 3000 m
Savrulan toz

TAF: GQNO 261100Z 2612/2718 34008KT 8000 NSC PROB30 TEMPO 2616/2620 4000 BLSA PROB40 TEMPO 2709/2715 04012KT 3000 BLDU

4.000'den fazla havaalanı için hava durumu gözlemleri ve tahminleri (METAR ve TAF raporları).

Kullanılabilir istasyonlar harita üzerinde sarı ve kırmızı noktalarla gösterilir.

İstasyonun adını görmek için fareyi noktanın üzerinde gezdirin.

Sonrasında hava gözlem ve tahminlerini görmek için tıklayın.

Haritayı değiştirmek için: yaklaştırmak için siyah artı işaretli yeşil düğmeye ve uzaklaştırmak için de eksi işaretli düğmeye hızla tıklayın; bitişik haritalar için yeşil okları kullanın.


METAR-TAF: